createdAt,value
2022-12-15T00:00:04.690Z,99491.84
2022-12-15T00:02:06.251Z,99491.75
2022-12-15T00:04:07.968Z,99491.44
2022-12-15T00:06:09.508Z,99506.28
2022-12-15T00:08:11.347Z,99508.41
2022-12-15T00:10:14.512Z,99499.91
2022-12-15T00:12:15.981Z,99492.13
2022-12-15T00:14:17.538Z,99497.47
2022-12-15T00:16:19.182Z,99505.25
2022-12-15T00:18:20.974Z,99524.56
2022-12-15T00:20:22.548Z,99525.19
2022-12-15T00:22:24.091Z,99533.56
2022-12-15T00:24:25.652Z,99526.00
2022-12-15T00:26:28.510Z,99533.88
2022-12-15T00:28:30.043Z,99528.28
2022-12-15T00:30:31.563Z,99528.38
2022-12-15T00:32:33.127Z,99528.38
2022-12-15T00:34:34.602Z,99527.88
2022-12-15T00:36:36.110Z,99532.66
2022-12-15T00:38:37.660Z,99530.47
2022-12-15T00:40:39.192Z,99533.44
2022-12-15T00:42:42.107Z,99539.06
2022-12-15T00:44:43.574Z,99536.66
2022-12-15T00:46:45.153Z,99529.97
2022-12-15T00:48:47.374Z,99537.13
2022-12-15T00:50:48.898Z,99538.75
2022-12-15T00:52:50.438Z,99536.59
2022-12-15T00:54:52.059Z,99544.03
2022-12-15T00:56:53.587Z,99548.81
2022-12-15T00:58:56.832Z,99549.06
2022-12-15T01:00:58.402Z,99554.88
2022-12-15T01:03:00.098Z,99560.13
2022-12-15T01:05:01.782Z,99567.41
2022-12-15T01:07:03.337Z,99565.88
2022-12-15T01:09:07.353Z,99562.13
2022-12-15T01:11:08.973Z,99576.25
2022-12-15T01:13:13.371Z,99577.19
2022-12-15T01:15:16.389Z,99568.81
2022-12-15T01:17:18.086Z,99573.56
2022-12-15T01:19:19.655Z,99579.06
2022-12-15T01:21:24.645Z,99582.19
2022-12-15T01:23:27.371Z,99589.38
2022-12-15T01:25:29.184Z,99584.78
2022-12-15T01:27:30.710Z,99586.72
2022-12-15T01:29:32.231Z,99581.31
2022-12-15T01:31:35.276Z,99586.06
2022-12-15T01:33:36.911Z,99591.38
2022-12-15T01:35:39.081Z,99584.22
2022-12-15T01:37:40.649Z,99574.63
2022-12-15T01:39:42.189Z,99589.13
2022-12-15T01:41:43.727Z,99592.03
2022-12-15T01:43:45.330Z,99583.75
2022-12-15T01:45:53.288Z,99591.88
2022-12-15T01:48:00.509Z,99595.44
2022-12-15T01:50:02.263Z,99600.06
2022-12-15T01:52:06.775Z,99605.00
2022-12-15T01:54:11.969Z,99603.69
2022-12-15T01:56:13.854Z,99609.28
2022-12-15T01:58:16.866Z,99606.94
2022-12-15T02:00:18.529Z,99609.28
2022-12-15T02:02:28.197Z,99613.03
2022-12-15T02:04:32.451Z,99611.84
2022-12-15T02:06:34.980Z,99612.41
2022-12-15T02:08:37.415Z,99610.72
2022-12-15T02:10:53.997Z,99608.94
2022-12-15T02:13:06.136Z,99611.22
2022-12-15T02:15:17.395Z,99610.88
2022-12-15T02:17:30.536Z,99612.47
2022-12-15T02:19:57.984Z,99612.47
2022-12-15T02:22:16.888Z,99606.69
2022-12-15T02:24:35.832Z,99604.66
2022-12-15T02:27:23.311Z,99611.53
2022-12-15T02:29:45.694Z,99597.19
2022-12-15T02:31:54.477Z,99597.19
2022-12-15T02:34:03.949Z,99602.72
2022-12-15T02:36:18.138Z,99599.69
2022-12-15T02:38:29.449Z,99592.84
2022-12-15T02:40:30.971Z,99605.91
2022-12-15T02:42:34.748Z,99614.19
2022-12-15T02:44:39.676Z,99618.84
2022-12-15T02:46:57.719Z,99625.94
2022-12-15T02:49:08.381Z,99620.13
2022-12-15T02:51:30.515Z,99616.19
2022-12-15T02:53:58.298Z,99620.72
2022-12-15T02:56:07.026Z,99620.41
2022-12-15T02:58:14.441Z,99620.22
2022-12-15T03:00:17.558Z,99629.81
2022-12-15T03:02:20.869Z,99631.44
2022-12-15T03:04:23.067Z,99626.13
2022-12-15T03:06:26.631Z,99629.00
2022-12-15T03:08:28.255Z,99637.81
2022-12-15T03:10:29.810Z,99632.97
2022-12-15T03:12:31.396Z,99633.03
2022-12-15T03:14:33.031Z,99643.50
2022-12-15T03:16:34.604Z,99638.53
2022-12-15T03:18:37.541Z,99645.94
2022-12-15T03:20:39.089Z,99650.44
2022-12-15T03:22:40.585Z,99640.31
2022-12-15T03:24:42.091Z,99644.31
2022-12-15T03:26:43.706Z,99653.09
2022-12-15T03:28:45.244Z,99660.34
2022-12-15T03:30:50.541Z,99653.91
2022-12-15T03:32:52.405Z,99664.53
2022-12-15T03:34:55.279Z,99662.78
2022-12-15T03:36:57.250Z,99661.47
2022-12-15T03:38:58.779Z,99667.25
2022-12-15T03:41:00.263Z,99670.00
2022-12-15T03:43:01.797Z,99672.41
2022-12-15T03:45:04.033Z,99667.56
2022-12-15T03:47:05.703Z,99671.34
2022-12-15T03:49:07.311Z,99671.78
2022-12-15T03:51:10.228Z,99675.31
2022-12-15T03:53:11.770Z,99675.56
2022-12-15T03:55:13.339Z,99680.66
2022-12-15T03:57:14.911Z,99677.75
2022-12-15T03:59:16.524Z,99672.19
2022-12-15T04:01:26.595Z,99668.56
2022-12-15T04:03:28.699Z,99662.69
2022-12-15T04:05:32.628Z,99674.59
2022-12-15T04:07:35.536Z,99669.84
2022-12-15T04:09:37.384Z,99678.63
2022-12-15T04:11:38.888Z,99674.91
2022-12-15T04:13:40.736Z,99679.81
2022-12-15T04:15:42.286Z,99685.06
2022-12-15T04:17:43.880Z,99684.34
2022-12-15T04:19:45.555Z,99678.28
2022-12-15T04:21:47.033Z,99681.78
2022-12-15T04:23:49.933Z,99681.97
2022-12-15T04:25:51.579Z,99679.91
2022-12-15T04:27:58.392Z,99684.56
2022-12-15T04:30:03.697Z,99690.69
2022-12-15T04:32:05.644Z,99691.25
2022-12-15T04:34:10.912Z,99692.78
2022-12-15T04:36:13.872Z,99695.88
2022-12-15T04:38:15.409Z,99693.34
2022-12-15T04:40:18.308Z,99692.19
2022-12-15T04:42:20.276Z,99686.34
2022-12-15T04:44:22.545Z,99687.97
2022-12-15T04:46:24.175Z,99685.53
2022-12-15T04:48:25.736Z,99683.81
2022-12-15T04:50:27.278Z,99690.25
2022-12-15T04:52:28.801Z,99685.63
2022-12-15T04:54:30.690Z,99684.81
2022-12-15T04:56:33.633Z,99692.16
2022-12-15T04:58:35.128Z,99694.22
2022-12-15T05:00:36.703Z,99697.53
2022-12-15T05:02:38.464Z,99698.22
2022-12-15T05:04:40.089Z,99703.16
2022-12-15T05:06:41.698Z,99697.59
2022-12-15T05:08:43.211Z,99700.38
2022-12-15T05:10:44.706Z,99700.81
2022-12-15T05:12:47.628Z,99704.38
2022-12-15T05:14:49.603Z,99700.78
2022-12-15T05:16:51.388Z,99693.88
2022-12-15T05:18:52.974Z,99690.63
2022-12-15T05:20:54.545Z,99689.84
2022-12-15T05:22:56.454Z,99698.34
2022-12-15T05:24:57.954Z,99696.59
2022-12-15T05:26:59.471Z,99692.44
2022-12-15T05:29:02.331Z,99694.53
2022-12-15T05:31:05.873Z,99708.38
2022-12-15T05:33:07.459Z,99711.50
2022-12-15T05:35:09.010Z,99714.16
2022-12-15T05:37:10.532Z,99705.81
2022-12-15T05:39:12.026Z,99709.28
2022-12-15T05:41:13.666Z,99705.56
2022-12-15T05:43:15.249Z,99706.38
2022-12-15T05:45:18.231Z,99712.06
2022-12-15T05:47:19.672Z,99713.03
2022-12-15T05:49:21.202Z,99720.50
2022-12-15T05:51:22.743Z,99720.03
2022-12-15T05:53:24.325Z,99715.38
2022-12-15T05:55:25.879Z,99713.44
2022-12-15T05:57:27.461Z,99726.97
2022-12-15T05:59:28.954Z,99732.03
2022-12-15T06:01:32.320Z,99733.34
2022-12-15T06:03:34.829Z,99737.03
2022-12-15T06:05:36.462Z,99744.44
2022-12-15T06:07:38.090Z,99736.75
2022-12-15T06:09:39.655Z,99741.72
2022-12-15T06:11:41.355Z,99752.91
2022-12-15T06:13:44.273Z,99759.97
2022-12-15T06:15:54.658Z,99760.75
2022-12-15T06:17:57.567Z,99764.22
2022-12-15T06:19:59.115Z,99767.22
2022-12-15T06:22:00.793Z,99767.94
2022-12-15T06:24:03.812Z,99760.09
2022-12-15T06:26:09.218Z,99753.50
2022-12-15T06:28:10.793Z,99750.38
2022-12-15T06:30:13.387Z,99749.09
2022-12-15T06:32:14.870Z,99741.97
2022-12-15T06:34:19.596Z,99746.38
2022-12-15T06:36:22.171Z,99741.03
2022-12-15T06:38:23.761Z,99739.19
2022-12-15T06:40:25.279Z,99738.78
2022-12-15T06:42:26.813Z,99746.63
2022-12-15T06:44:28.372Z,99745.94
2022-12-15T06:46:31.784Z,99750.00
2022-12-15T06:48:33.338Z,99758.19
2022-12-15T06:50:36.214Z,99748.28
2022-12-15T06:52:37.761Z,99764.44
2022-12-15T06:54:39.257Z,99762.91
2022-12-15T06:56:40.803Z,99769.38
2022-12-15T06:58:42.524Z,99776.44
2022-12-15T07:00:45.644Z,99780.22
2022-12-15T07:02:49.976Z,99784.97
2022-12-15T07:04:52.018Z,99792.91
2022-12-15T07:06:54.903Z,99783.81
2022-12-15T07:08:56.551Z,99778.53
2022-12-15T07:10:58.663Z,99781.63
2022-12-15T07:13:00.199Z,99780.59
2022-12-15T07:15:01.823Z,99764.22
2022-12-15T07:17:03.611Z,99766.16
2022-12-15T07:19:05.151Z,99769.75
2022-12-15T07:21:08.756Z,99774.03
2022-12-15T07:23:11.845Z,99767.91
2022-12-15T07:25:13.343Z,99773.50
2022-12-15T07:27:15.114Z,99773.47
2022-12-15T07:29:22.672Z,99778.00
2022-12-15T07:31:25.172Z,99787.22
2022-12-15T07:33:26.750Z,99779.09
2022-12-15T07:35:28.362Z,99787.56
2022-12-15T07:37:30.110Z,99793.22
2022-12-15T07:39:33.042Z,99790.97
2022-12-15T07:41:34.618Z,99789.28
2022-12-15T07:43:36.725Z,99779.16
2022-12-15T07:45:38.792Z,99773.66
2022-12-15T07:47:40.524Z,99770.88
2022-12-15T07:49:42.166Z,99777.59
2022-12-15T07:51:43.847Z,99763.63
2022-12-15T07:53:45.505Z,99762.34
2022-12-15T07:56:06.932Z,99765.00
2022-12-15T07:58:09.850Z,99759.84
2022-12-15T08:00:15.706Z,99775.75
2022-12-15T08:02:17.532Z,99767.53
2022-12-15T08:04:19.438Z,99779.31
2022-12-15T08:06:21.146Z,99785.22
2022-12-15T08:08:23.071Z,99775.97
2022-12-15T08:10:24.623Z,99780.59
2022-12-15T08:12:28.665Z,99790.63
2022-12-15T08:14:30.434Z,99787.19
2022-12-15T08:16:32.147Z,99788.66
2022-12-15T08:18:36.384Z,99792.13
2022-12-15T08:20:37.923Z,99798.25
2022-12-15T08:22:39.450Z,99798.25
2022-12-15T08:24:41.137Z,99803.66
2022-12-15T08:26:43.930Z,99810.03
2022-12-15T08:28:46.846Z,99811.63
2022-12-15T08:30:48.428Z,99822.34
2022-12-15T08:32:52.085Z,99830.44
2022-12-15T08:34:53.788Z,99839.56
2022-12-15T08:36:55.350Z,99850.16
2022-12-15T08:38:58.074Z,99850.06
2022-12-15T08:41:07.513Z,99858.81
2022-12-15T08:43:09.085Z,99864.38
2022-12-15T08:45:12.425Z,99855.72
2022-12-15T08:47:13.894Z,99860.00
2022-12-15T08:49:21.508Z,99860.91
2022-12-15T08:51:26.346Z,99864.81
2022-12-15T08:53:32.199Z,99861.63
2022-12-15T08:55:34.294Z,99876.94
2022-12-15T08:57:35.777Z,99871.50
2022-12-15T08:59:37.313Z,99867.59
2022-12-15T09:01:40.505Z,99859.28
2022-12-15T09:03:42.173Z,99866.13
2022-12-15T09:05:43.815Z,99876.38
2022-12-15T09:07:45.455Z,99889.63
2022-12-15T09:09:49.767Z,99888.16
2022-12-15T09:11:51.360Z,99892.56
2022-12-15T09:13:53.163Z,99892.06
2022-12-15T09:16:13.509Z,99893.59
2022-12-15T09:18:16.405Z,99891.75
2022-12-15T09:20:18.204Z,99894.75
2022-12-15T09:22:19.820Z,99892.78
2022-12-15T09:24:32.289Z,99900.50
2022-12-15T09:26:36.123Z,99895.31
2022-12-15T09:28:38.409Z,99898.09
2022-12-15T09:30:40.450Z,99891.50
2022-12-15T09:32:41.975Z,99878.78
2022-12-15T09:34:44.934Z,99871.41
2022-12-15T09:36:46.642Z,99873.56
2022-12-15T09:38:48.739Z,99886.97
2022-12-15T09:40:50.296Z,99885.13
2022-12-15T09:43:11.191Z,99889.97
2022-12-15T09:45:21.176Z,99881.28
2022-12-15T09:47:30.265Z,99883.50
2022-12-15T09:49:45.742Z,99884.06
2022-12-15T09:52:00.952Z,99878.97
2022-12-15T09:54:03.021Z,99883.72
2022-12-15T09:56:12.483Z,99883.25
2022-12-15T09:58:25.775Z,99869.16
2022-12-15T10:00:36.909Z,99866.84
2022-12-15T10:03:08.057Z,99874.09
2022-12-15T10:05:19.131Z,99865.09
2022-12-15T10:07:28.958Z,99863.09
2022-12-15T10:09:30.887Z,99861.47
2022-12-15T10:11:50.598Z,99861.59
2022-12-15T10:13:57.753Z,99863.66
2022-12-15T10:16:03.264Z,99860.75
2022-12-15T10:18:12.279Z,99853.16
2022-12-15T10:20:18.140Z,99852.66
2022-12-15T10:22:24.614Z,99842.91
2022-12-15T10:25:09.035Z,99847.69
2022-12-15T10:26:59.039Z,99842.69
2022-12-15T10:29:29.082Z,99838.25
2022-12-15T10:31:36.688Z,99831.69
2022-12-15T10:33:48.474Z,99831.91
2022-12-15T10:35:53.392Z,99816.88
2022-12-15T10:37:59.718Z,99819.00
2022-12-15T10:40:01.309Z,99823.59
2022-12-15T10:42:14.719Z,99829.66
2022-12-15T10:44:30.257Z,99838.03
2022-12-15T10:46:33.736Z,99832.03
2022-12-15T10:48:35.541Z,99837.28
2022-12-15T10:50:37.248Z,99834.41
2022-12-15T10:52:38.746Z,99845.13
2022-12-15T10:54:46.351Z,99846.72
2022-12-15T10:56:52.021Z,99836.66
2022-12-15T10:58:55.436Z,99827.25
2022-12-15T11:01:07.226Z,99830.13
2022-12-15T11:03:22.266Z,99833.66
2022-12-15T12:10:31.367Z,99756.09
2022-12-15T12:12:41.244Z,99755.06
2022-12-15T12:14:55.055Z,99747.84
2022-12-15T12:17:03.705Z,99738.06
2022-12-15T12:19:10.329Z,99728.06
2022-12-15T12:21:15.145Z,99718.19
2022-12-15T12:23:22.461Z,99709.16
2022-12-15T12:25:26.741Z,99706.25
2022-12-15T12:27:36.130Z,99700.97
2022-12-15T12:29:42.644Z,99699.38
2022-12-15T12:31:59.070Z,99686.88
2022-12-15T12:34:10.674Z,99688.84
2022-12-15T12:36:14.447Z,99682.59
2022-12-15T12:38:20.091Z,99690.09
2022-12-15T12:40:30.410Z,99686.94
2022-12-15T12:42:38.141Z,99684.06
2022-12-15T12:44:39.804Z,99672.03
2022-12-15T12:46:46.097Z,99673.41
2022-12-15T12:48:54.834Z,99673.91
2022-12-15T12:51:11.378Z,99671.56
2022-12-15T12:53:27.384Z,99676.88
2022-12-15T12:55:38.729Z,99682.47
2022-12-15T12:57:41.758Z,99677.34
2022-12-15T12:59:56.428Z,99672.75
2022-12-15T13:02:31.557Z,99677.50
2022-12-15T13:04:40.789Z,99667.97
2022-12-15T13:07:01.296Z,99661.84
2022-12-15T13:09:22.665Z,99654.41
2022-12-15T13:12:00.863Z,99639.78
2022-12-15T13:14:03.295Z,99628.34
2022-12-15T13:16:11.376Z,99630.78
2022-12-15T13:18:16.948Z,99633.78
2022-12-15T13:20:27.653Z,99627.06
2022-12-15T13:22:33.186Z,99626.03
2022-12-15T13:24:36.071Z,99633.53
2022-12-15T13:26:44.936Z,99630.06
2022-12-15T13:28:56.707Z,99635.59
2022-12-15T13:31:34.924Z,99631.34
2022-12-15T13:33:45.048Z,99625.25
2022-12-15T13:35:47.178Z,99626.84
2022-12-15T13:37:53.131Z,99620.69
2022-12-15T13:39:57.293Z,99624.41
2022-12-15T13:42:51.248Z,99622.31
2022-12-15T13:45:13.394Z,99620.47
2022-12-15T13:47:20.267Z,99618.59
2022-12-15T13:49:28.874Z,99619.41
2022-12-15T13:51:33.942Z,99614.09
2022-12-15T13:53:40.556Z,99623.34
2022-12-15T13:56:08.731Z,99620.75
2022-12-15T13:58:15.623Z,99625.81
2022-12-15T14:00:18.851Z,99622.38
2022-12-15T14:02:25.758Z,99631.72
2022-12-15T14:04:33.591Z,99630.41
2022-12-15T14:06:38.479Z,99629.53
2022-12-15T14:08:40.153Z,99631.72
2022-12-15T14:10:44.285Z,99625.59
2022-12-15T14:12:48.175Z,99614.38
2022-12-15T14:14:50.416Z,99613.31
2022-12-15T14:16:58.380Z,99618.09
2022-12-15T14:19:10.520Z,99609.28
2022-12-15T14:21:20.029Z,99604.78
2022-12-15T14:23:23.712Z,99598.09
2022-12-15T14:25:27.839Z,99600.50
2022-12-15T14:27:31.751Z,99601.56
2022-12-15T14:29:33.452Z,99599.16
2022-12-15T14:31:37.081Z,99602.03
2022-12-15T14:33:43.674Z,99598.09
2022-12-15T14:35:49.478Z,99595.66
2022-12-15T14:37:53.079Z,99601.50
2022-12-15T14:39:55.632Z,99608.44
2022-12-15T14:41:58.279Z,99610.56
2022-12-15T14:44:36.925Z,99611.59
2022-12-15T14:46:27.239Z,99616.06
2022-12-15T14:50:54.674Z,99616.28
2022-12-15T14:53:00.615Z,99619.16
2022-12-15T14:55:04.185Z,99624.81
2022-12-15T14:57:15.040Z,99627.97
2022-12-15T14:59:19.550Z,99623.69
2022-12-15T15:01:24.316Z,99621.53
2022-12-15T15:03:06.092Z,99626.16
2022-12-15T15:03:34.805Z,99618.06
2022-12-15T15:05:40.240Z,99620.72
2022-12-15T15:07:45.729Z,99617.88
2022-12-15T15:09:47.295Z,99620.22
2022-12-15T15:11:52.422Z,99621.03
2022-12-15T15:13:56.408Z,99627.47
2022-12-15T15:16:04.371Z,99628.53
2022-12-15T15:18:06.045Z,99635.47
2022-12-15T15:20:19.077Z,99631.72
2022-12-15T15:22:35.628Z,99635.69
2022-12-15T15:24:38.591Z,99629.81
2022-12-15T15:26:40.315Z,99634.59
2022-12-15T15:28:43.609Z,99631.31
2022-12-15T15:30:48.615Z,99638.25
2022-12-15T15:32:53.279Z,99636.34
2022-12-15T15:34:54.856Z,99636.63
2022-12-15T15:37:01.958Z,99641.47
2022-12-15T15:39:12.218Z,99633.22
2022-12-15T15:41:26.338Z,99631.88
2022-12-15T15:43:28.768Z,99627.22
2022-12-15T15:45:30.364Z,99621.28
2022-12-15T15:47:31.966Z,99628.47
2022-12-15T15:49:37.875Z,99625.31
2022-12-15T15:51:40.930Z,99632.50
2022-12-15T15:53:42.682Z,99625.06
2022-12-15T15:55:44.640Z,99637.63
2022-12-15T15:57:47.639Z,99629.88
2022-12-15T15:59:49.447Z,99626.44
2022-12-15T16:01:53.208Z,99628.28
2022-12-15T16:03:54.911Z,99622.16
2022-12-15T16:05:56.557Z,99617.88
2022-12-15T16:07:59.656Z,99612.00
2022-12-15T16:10:01.395Z,99613.38
2022-12-15T16:12:03.018Z,99612.56
2022-12-15T16:14:10.510Z,99613.31
2022-12-15T16:16:17.960Z,99614.09
2022-12-15T16:18:22.725Z,99618.06
2022-12-15T16:20:27.489Z,99621.28
2022-12-15T16:22:29.107Z,99625.56
2022-12-15T16:24:30.700Z,99625.56
2022-12-15T16:26:32.980Z,99627.97
2022-12-15T16:28:34.906Z,99624.25
2022-12-15T16:30:38.175Z,99621.38
2022-12-15T16:32:39.772Z,99622.63
2022-12-15T16:34:41.387Z,99622.63
2022-12-15T16:36:43.724Z,99623.94
2022-12-15T16:38:45.248Z,99629.75
2022-12-15T16:40:46.987Z,99629.75
2022-12-15T16:42:54.427Z,99635.34
2022-12-15T16:44:56.001Z,99635.03
2022-12-15T16:46:59.913Z,99627.34
2022-12-15T16:49:01.587Z,99622.09
2022-12-15T16:51:06.876Z,99625.78
2022-12-15T16:53:14.498Z,99638.97
2022-12-15T16:55:27.248Z,99642.28
2022-12-15T16:57:29.100Z,99632.50
2022-12-15T16:59:33.552Z,99630.91
2022-12-15T17:01:40.018Z,99630.97
2022-12-15T17:03:43.556Z,99633.94
2022-12-15T17:05:49.302Z,99630.81
2022-12-15T17:07:54.840Z,99632.97
2022-12-15T17:09:56.670Z,99643.06
2022-12-15T17:11:59.896Z,99638.53
2022-12-15T17:14:01.545Z,99636.69
2022-12-15T17:16:04.107Z,99647.06
2022-12-15T17:18:06.014Z,99649.25
2022-12-15T17:20:31.553Z,99648.13
2022-12-15T17:22:33.990Z,99643.63
2022-12-15T17:24:35.671Z,99645.47
2022-12-15T17:26:37.480Z,99640.97
2022-12-15T17:28:39.134Z,99642.00
2022-12-15T17:30:40.899Z,99643.84
2022-12-15T17:32:42.789Z,99628.44
2022-12-15T17:34:44.437Z,99637.47
2022-12-15T17:36:47.327Z,99632.41
2022-12-15T17:38:52.643Z,99629.38
2022-12-15T17:40:55.315Z,99625.16
2022-12-15T17:42:56.840Z,99621.69
2022-12-15T17:44:58.520Z,99619.03
2022-12-15T17:47:00.100Z,99617.41
2022-12-15T17:49:01.688Z,99610.81
2022-12-15T17:51:10.835Z,99607.09
2022-12-15T17:53:13.786Z,99600.72
2022-12-15T17:55:19.290Z,99597.00
2022-12-15T17:57:20.864Z,99586.13
2022-12-15T17:59:22.370Z,99593.56
2022-12-15T18:01:24.134Z,99584.75
2022-12-15T18:03:25.915Z,99584.69
2022-12-15T18:05:29.778Z,99586.72
2022-12-15T18:07:31.422Z,99578.75
2022-12-15T18:09:34.327Z,99586.72
2022-12-15T18:11:36.098Z,99583.53
2022-12-15T18:13:38.054Z,99571.84
2022-12-15T18:15:39.830Z,99574.25
2022-12-15T18:17:41.430Z,99568.09
2022-12-15T18:19:43.051Z,99576.06
2022-12-15T18:21:44.648Z,99570.53
2022-12-15T18:23:46.405Z,99564.91
2022-12-15T18:25:50.305Z,99563.53
2022-12-15T18:27:51.954Z,99570.75
2022-12-15T18:29:54.117Z,99570.72
2022-12-15T18:31:55.917Z,99573.06
2022-12-15T18:34:04.029Z,99566.59
2022-12-15T18:36:06.871Z,99560.56
2022-12-15T18:38:14.602Z,99564.56
2022-12-15T18:40:18.478Z,99557.47
2022-12-15T18:42:21.913Z,99567.06
2022-12-15T18:44:26.088Z,99566.50
2022-12-15T18:46:27.804Z,99566.44
2022-12-15T18:48:31.328Z,99559.81
2022-12-15T18:50:33.266Z,99564.34
2022-12-15T18:52:35.884Z,99565.38
2022-12-15T18:54:37.506Z,99556.06
2022-12-15T18:56:39.401Z,99556.34
2022-12-15T18:58:42.386Z,99561.19
2022-12-15T19:00:44.092Z,99559.06
2022-12-15T19:02:45.919Z,99558.31
2022-12-15T19:04:47.619Z,99559.44
2022-12-15T19:06:49.135Z,99563.16
2022-12-15T19:08:51.327Z,99562.13
2022-12-15T19:10:55.803Z,99554.38
2022-12-15T19:12:58.834Z,99554.31
2022-12-15T19:15:01.870Z,99553.00
2022-12-15T19:17:03.427Z,99549.00
2022-12-15T19:19:04.958Z,99552.47
2022-12-15T19:21:23.780Z,99549.00
2022-12-15T19:23:25.452Z,99534.91
2022-12-15T19:25:29.291Z,99526.91
2022-12-15T19:27:30.853Z,99529.81
2022-12-15T19:29:32.478Z,99527.97
2022-12-15T19:31:35.553Z,99523.13
2022-12-15T19:33:37.156Z,99524.44
2022-12-15T19:35:40.842Z,99527.66
2022-12-15T19:37:44.584Z,99526.91
2022-12-15T19:39:46.295Z,99531.97
2022-12-15T19:41:47.827Z,99531.69
2022-12-15T19:43:49.354Z,99539.66
2022-12-15T19:45:52.504Z,99534.91
2022-12-15T19:47:55.783Z,99536.69
2022-12-15T19:49:57.462Z,99539.28
2022-12-15T19:51:59.032Z,99533.38
2022-12-15T19:54:01.223Z,99541.63
2022-12-15T19:56:04.197Z,99544.03
2022-12-15T19:58:26.730Z,99541.88
2022-12-15T20:00:29.233Z,99541.63
2022-12-15T20:02:31.264Z,99546.69
2022-12-15T20:04:34.292Z,99543.53
2022-12-15T20:06:35.864Z,99544.59
2022-12-15T20:08:41.193Z,99538.97
2022-12-15T20:10:42.969Z,99542.69
2022-12-15T20:12:44.573Z,99540.50
2022-12-15T20:14:46.492Z,99540.19
2022-12-15T20:16:48.348Z,99548.16
2022-12-15T20:18:51.382Z,99546.56
2022-12-15T20:20:54.275Z,99542.28
2022-12-15T20:22:58.843Z,99543.84
2022-12-15T20:25:01.880Z,99549.47
2022-12-15T20:27:07.294Z,99549.38
2022-12-15T20:29:21.569Z,99551.47
2022-12-15T20:31:24.228Z,99555.75
2022-12-15T20:33:26.057Z,99558.66
2022-12-15T20:35:27.762Z,99564.72
2022-12-15T20:37:30.807Z,99560.44
2022-12-15T20:39:32.669Z,99560.63
2022-12-15T20:41:34.209Z,99559.81
2022-12-15T20:43:36.309Z,99560.78
2022-12-15T20:45:38.238Z,99563.38
2022-12-15T20:47:40.976Z,99566.25
2022-12-15T20:49:42.588Z,99561.69
2022-12-15T20:51:45.435Z,99563.59
2022-12-15T20:53:48.635Z,99559.84
2022-12-15T20:55:51.901Z,99559.50
2022-12-15T20:57:53.488Z,99558.44
2022-12-15T20:59:55.088Z,99569.34
2022-12-15T21:01:56.838Z,99560.72
2022-12-15T21:04:00.983Z,99564.13
2022-12-15T21:06:08.729Z,99564.91
2022-12-15T21:08:16.001Z,99564.44
2022-12-15T21:10:20.939Z,99567.56
2022-12-15T21:12:27.157Z,99560.72
2022-12-15T21:14:28.788Z,99564.50
2022-12-15T21:16:31.929Z,99564.28
2022-12-15T21:19:11.401Z,99561.09
2022-12-15T21:20:57.081Z,99567.00
2022-12-15T21:22:58.688Z,99562.97
2022-12-15T21:25:00.792Z,99560.63
2022-12-15T21:27:03.901Z,99562.25
2022-12-15T21:29:11.640Z,99562.25
2022-12-15T21:31:13.627Z,99562.50
2022-12-15T21:33:18.180Z,99555.00
2022-12-15T21:35:19.875Z,99558.44
2022-12-15T21:37:26.420Z,99561.19
2022-12-15T21:39:30.259Z,99561.50
2022-12-15T21:41:32.034Z,99562.66
2022-12-15T21:43:36.062Z,99555.94
2022-12-15T21:45:37.971Z,99569.81
2022-12-15T21:47:39.722Z,99561.81
2022-12-15T21:49:41.422Z,99574.88
2022-12-15T21:51:46.497Z,99563.22
2022-12-15T21:53:48.119Z,99573.84
2022-12-15T21:55:49.712Z,99563.91
2022-12-15T21:57:51.932Z,99576.41
2022-12-15T22:00:01.328Z,99573.44
2022-12-15T22:02:23.949Z,99578.81
2022-12-15T22:04:31.325Z,99579.97
2022-12-15T22:06:32.855Z,99578.34
2022-12-15T22:08:34.999Z,99577.31
2022-12-15T22:10:36.760Z,99570.13
2022-12-15T22:12:39.714Z,99573.34
2022-12-15T22:14:42.451Z,99572.78
2022-12-15T22:16:45.294Z,99576.00
2022-12-15T22:18:49.984Z,99582.38
2022-12-15T22:20:51.479Z,99582.88
2022-12-15T22:22:53.105Z,99581.56
2022-12-15T22:24:54.821Z,99581.09
2022-12-15T22:26:56.544Z,99582.63
2022-12-15T22:29:00.953Z,99577.78
2022-12-15T22:31:04.136Z,99578.75
2022-12-15T22:33:17.583Z,99580.59
2022-12-15T22:35:23.742Z,99579.72
2022-12-15T22:37:25.344Z,99583.41
2022-12-15T22:39:26.922Z,99587.34
2022-12-15T22:41:28.637Z,99593.50
2022-12-15T22:43:35.735Z,99589.69
2022-12-15T22:45:42.604Z,99590.81
2022-12-15T22:47:46.662Z,99587.66
2022-12-15T22:49:49.671Z,99593.31
2022-12-15T22:51:51.215Z,99589.06
2022-12-15T22:53:52.854Z,99590.31
2022-12-15T22:55:56.627Z,99590.09
2022-12-15T22:58:01.251Z,99588.00
2022-12-15T23:00:06.671Z,99585.41
2022-12-15T23:02:15.714Z,99582.91
2022-12-15T23:04:17.587Z,99587.19
2022-12-15T23:06:20.520Z,99586.94
2022-12-15T23:08:22.236Z,99585.69
2022-12-15T23:10:23.977Z,99581.16
2022-12-15T23:12:25.496Z,99579.78
2022-12-15T23:14:27.467Z,99581.63
2022-12-15T23:16:29.067Z,99586.72
2022-12-15T23:18:30.761Z,99583.25
2022-12-15T23:20:32.382Z,99585.56
2022-12-15T23:22:35.396Z,99588.00
2022-12-15T23:24:36.983Z,99591.22
2022-12-15T23:26:38.553Z,99585.34
2022-12-15T23:28:40.839Z,99590.16
2022-12-15T23:30:42.522Z,99581.16
2022-12-15T23:32:55.187Z,99579.53
2022-12-15T23:34:57.123Z,99577.38
2022-12-15T23:36:58.762Z,99567.66
2022-12-15T23:39:01.854Z,99567.31
2022-12-15T23:41:04.045Z,99559.00
2022-12-15T23:43:07.836Z,99557.97
2022-12-15T23:45:10.982Z,99566.25
2022-12-15T23:47:12.707Z,99559.34
2022-12-15T23:49:14.276Z,99548.97
2022-12-15T23:51:17.527Z,99559.75
2022-12-15T23:53:19.063Z,99559.25
2022-12-15T23:55:21.930Z,99559.00
2022-12-15T23:57:25.575Z,99561.34
2022-12-15T23:59:27.152Z,99562.81
